sensor_id;sensor_type;location;lat;lon;timestamp;pressure;altitude;pressure_sealevel;temperature;humidity
81897;BME280;71360;43.506;1.500;2023-09-30T00:00:43;99721.22;;;21.51;59.63
81897;BME280;71360;43.506;1.500;2023-09-30T00:03:09;99711.75;;;21.45;59.76
81897;BME280;71360;43.506;1.500;2023-09-30T00:05:36;99723.75;;;21.42;59.69
81897;BME280;71360;43.506;1.500;2023-09-30T00:08:02;99728.59;;;21.39;59.85
81897;BME280;71360;43.506;1.500;2023-09-30T00:10:28;99726.13;;;21.36;59.69
81897;BME280;71360;43.506;1.500;2023-09-30T00:12:55;99730.00;;;21.33;59.70
81897;BME280;71360;43.506;1.500;2023-09-30T00:15:21;99732.97;;;21.30;59.82
81897;BME280;71360;43.506;1.500;2023-09-30T00:17:46;99733.25;;;21.27;59.97
81897;BME280;71360;43.506;1.500;2023-09-30T00:20:12;99729.09;;;21.23;59.99
81897;BME280;71360;43.506;1.500;2023-09-30T00:22:40;99733.91;;;21.19;60.69
81897;BME280;71360;43.506;1.500;2023-09-30T00:25:06;99731.34;;;21.18;60.32
81897;BME280;71360;43.506;1.500;2023-09-30T00:27:32;99731.47;;;21.16;60.78
81897;BME280;71360;43.506;1.500;2023-09-30T00:29:57;99730.16;;;21.11;61.12
81897;BME280;71360;43.506;1.500;2023-09-30T00:32:23;99726.97;;;21.05;61.14
81897;BME280;71360;43.506;1.500;2023-09-30T00:34:48;99722.06;;;20.99;60.90
81897;BME280;71360;43.506;1.500;2023-09-30T00:37:14;99723.47;;;20.94;61.28
81897;BME280;71360;43.506;1.500;2023-09-30T00:39:39;99727.44;;;20.89;61.08
81897;BME280;71360;43.506;1.500;2023-09-30T00:42:05;99726.97;;;20.84;61.38
81897;BME280;71360;43.506;1.500;2023-09-30T00:44:30;99727.38;;;20.80;61.71
81897;BME280;71360;43.506;1.500;2023-09-30T00:46:56;99723.31;;;20.74;61.87
81897;BME280;71360;43.506;1.500;2023-09-30T00:49:25;99717.28;;;20.70;61.86
81897;BME280;71360;43.506;1.500;2023-09-30T00:51:51;99723.94;;;20.66;61.93
81897;BME280;71360;43.506;1.500;2023-09-30T00:54:17;99727.06;;;20.62;62.04
81897;BME280;71360;43.506;1.500;2023-09-30T00:56:45;99732.72;;;20.58;62.26
81897;BME280;71360;43.506;1.500;2023-09-30T00:59:13;99725.97;;;20.53;62.17
81897;BME280;71360;43.506;1.500;2023-09-30T01:01:40;99721.06;;;20.47;62.45
81897;BME280;71360;43.506;1.500;2023-09-30T01:04:05;99730.44;;;20.42;62.65
81897;BME280;71360;43.506;1.500;2023-09-30T01:06:31;99715.41;;;20.38;62.54
81897;BME280;71360;43.506;1.500;2023-09-30T01:08:57;99722.97;;;20.35;63.07
81897;BME280;71360;43.506;1.500;2023-09-30T01:11:22;99722.34;;;20.31;63.00
81897;BME280;71360;43.506;1.500;2023-09-30T01:13:48;99722.75;;;20.27;63.45
81897;BME280;71360;43.506;1.500;2023-09-30T01:16:14;99719.41;;;20.23;63.49
81897;BME280;71360;43.506;1.500;2023-09-30T01:18:40;99717.09;;;20.18;63.61
81897;BME280;71360;43.506;1.500;2023-09-30T01:21:09;99719.06;;;20.16;63.91
81897;BME280;71360;43.506;1.500;2023-09-30T01:23:35;99719.44;;;20.12;63.91
81897;BME280;71360;43.506;1.500;2023-09-30T01:26:11;99726.00;;;20.09;63.95
81897;BME280;71360;43.506;1.500;2023-09-30T01:28:37;99716.25;;;20.06;63.88
81897;BME280;71360;43.506;1.500;2023-09-30T01:31:03;99724.66;;;20.03;64.44
81897;BME280;71360;43.506;1.500;2023-09-30T01:33:29;99725.00;;;19.99;64.38
81897;BME280;71360;43.506;1.500;2023-09-30T01:35:55;99727.13;;;19.95;64.21
81897;BME280;71360;43.506;1.500;2023-09-30T01:38:21;99731.81;;;19.93;63.94
81897;BME280;71360;43.506;1.500;2023-09-30T01:40:47;99719.50;;;19.89;64.27
81897;BME280;71360;43.506;1.500;2023-09-30T01:43:13;99718.00;;;19.85;64.51
81897;BME280;71360;43.506;1.500;2023-09-30T01:45:40;99730.72;;;19.84;64.48
81897;BME280;71360;43.506;1.500;2023-09-30T01:48:06;99730.19;;;19.79;64.74
81897;BME280;71360;43.506;1.500;2023-09-30T01:50:32;99725.88;;;19.77;64.61
81897;BME280;71360;43.506;1.500;2023-09-30T01:52:57;99717.13;;;19.73;65.10
81897;BME280;71360;43.506;1.500;2023-09-30T01:55:23;99721.94;;;19.69;65.65
81897;BME280;71360;43.506;1.500;2023-09-30T01:57:48;99724.88;;;19.66;65.10
81897;BME280;71360;43.506;1.500;2023-09-30T02:00:14;99725.03;;;19.65;65.29
81897;BME280;71360;43.506;1.500;2023-09-30T02:02:40;99726.13;;;19.62;65.24
81897;BME280;71360;43.506;1.500;2023-09-30T02:05:07;99723.41;;;19.62;65.41
81897;BME280;71360;43.506;1.500;2023-09-30T02:07:34;99727.97;;;19.62;65.39
81897;BME280;71360;43.506;1.500;2023-09-30T02:10:00;99727.97;;;19.62;65.52
81897;BME280;71360;43.506;1.500;2023-09-30T02:12:27;99722.56;;;19.62;65.61
81897;BME280;71360;43.506;1.500;2023-09-30T02:14:53;99728.75;;;19.64;65.27
81897;BME280;71360;43.506;1.500;2023-09-30T02:17:19;99729.72;;;19.63;65.43
81897;BME280;71360;43.506;1.500;2023-09-30T02:19:44;99723.41;;;19.62;65.67
81897;BME280;71360;43.506;1.500;2023-09-30T02:22:10;99721.59;;;19.63;65.83
81897;BME280;71360;43.506;1.500;2023-09-30T02:24:37;99724.16;;;19.64;65.48
81897;BME280;71360;43.506;1.500;2023-09-30T02:27:04;99721.47;;;19.64;65.62
81897;BME280;71360;43.506;1.500;2023-09-30T02:29:29;99723.31;;;19.64;65.22
81897;BME280;71360;43.506;1.500;2023-09-30T02:31:56;99731.53;;;19.62;65.09
81897;BME280;71360;43.506;1.500;2023-09-30T02:34:21;99725.28;;;19.62;65.43
81897;BME280;71360;43.506;1.500;2023-09-30T02:36:47;99726.38;;;19.59;65.38
81897;BME280;71360;43.506;1.500;2023-09-30T02:39:13;99735.63;;;19.56;65.70
81897;BME280;71360;43.506;1.500;2023-09-30T02:41:42;99731.19;;;19.55;65.78
81897;BME280;71360;43.506;1.500;2023-09-30T02:44:07;99727.75;;;19.53;65.93
81897;BME280;71360;43.506;1.500;2023-09-30T02:46:33;99724.19;;;19.53;65.64
81897;BME280;71360;43.506;1.500;2023-09-30T02:49:00;99730.59;;;19.52;65.83
81897;BME280;71360;43.506;1.500;2023-09-30T02:51:25;99716.28;;;19.50;65.34
81897;BME280;71360;43.506;1.500;2023-09-30T02:53:51;99720.97;;;19.48;65.67
81897;BME280;71360;43.506;1.500;2023-09-30T02:56:16;99711.22;;;19.45;65.52
81897;BME280;71360;43.506;1.500;2023-09-30T02:58:42;99714.06;;;19.44;65.79
81897;BME280;71360;43.506;1.500;2023-09-30T03:01:08;99728.59;;;19.43;66.23
81897;BME280;71360;43.506;1.500;2023-09-30T03:03:35;99720.72;;;19.39;66.25
81897;BME280;71360;43.506;1.500;2023-09-30T03:06:00;99715.31;;;19.39;65.88
81897;BME280;71360;43.506;1.500;2023-09-30T03:08:26;99719.97;;;19.37;65.89
81897;BME280;71360;43.506;1.500;2023-09-30T03:10:52;99721.06;;;19.35;65.81
81897;BME280;71360;43.506;1.500;2023-09-30T03:13:18;99722.19;;;19.32;66.27
81897;BME280;71360;43.506;1.500;2023-09-30T03:15:47;99724.88;;;19.32;66.69
81897;BME280;71360;43.506;1.500;2023-09-30T03:18:15;99716.03;;;19.30;66.52
81897;BME280;71360;43.506;1.500;2023-09-30T03:20:42;99723.41;;;19.28;66.30
81897;BME280;71360;43.506;1.500;2023-09-30T03:23:08;99721.56;;;19.29;66.30
81897;BME280;71360;43.506;1.500;2023-09-30T03:25:35;99715.41;;;19.27;66.53
81897;BME280;71360;43.506;1.500;2023-09-30T03:28:00;99719.97;;;19.26;66.23
81897;BME280;71360;43.506;1.500;2023-09-30T03:30:26;99715.66;;;19.23;66.21
81897;BME280;71360;43.506;1.500;2023-09-30T03:32:51;99720.31;;;19.21;66.30
81897;BME280;71360;43.506;1.500;2023-09-30T03:35:17;99713.31;;;19.19;66.37
81897;BME280;71360;43.506;1.500;2023-09-30T03:37:43;99711.09;;;19.13;66.57
81897;BME280;71360;43.506;1.500;2023-09-30T03:40:10;99713.16;;;19.09;66.70
81897;BME280;71360;43.506;1.500;2023-09-30T03:42:44;99717.09;;;19.05;66.42
81897;BME280;71360;43.506;1.500;2023-09-30T03:45:10;99714.50;;;19.03;66.60
81897;BME280;71360;43.506;1.500;2023-09-30T03:47:37;99709.47;;;18.99;66.92
81897;BME280;71360;43.506;1.500;2023-09-30T03:50:03;99708.81;;;18.95;66.85
81897;BME280;71360;43.506;1.500;2023-09-30T03:52:30;99714.50;;;18.92;66.74
81897;BME280;71360;43.506;1.500;2023-09-30T03:54:59;99712.88;;;18.89;66.63
81897;BME280;71360;43.506;1.500;2023-09-30T03:57:24;99716.78;;;18.85;66.92
81897;BME280;71360;43.506;1.500;2023-09-30T03:59:50;99717.88;;;18.83;66.68
81897;BME280;71360;43.506;1.500;2023-09-30T04:02:15;99715.41;;;18.80;66.91
81897;BME280;71360;43.506;1.500;2023-09-30T04:04:41;99712.84;;;18.78;67.44
81897;BME280;71360;43.506;1.500;2023-09-30T04:07:06;99727.47;;;18.76;66.54
81897;BME280;71360;43.506;1.500;2023-09-30T04:09:35;99725.97;;;18.71;67.09
81897;BME280;71360;43.506;1.500;2023-09-30T04:12:01;99718.84;;;18.70;67.13
81897;BME280;71360;43.506;1.500;2023-09-30T04:14:26;99710.84;;;18.69;67.20
81897;BME280;71360;43.506;1.500;2023-09-30T04:16:52;99711.94;;;18.66;66.99
81897;BME280;71360;43.506;1.500;2023-09-30T04:19:19;99712.91;;;18.65;66.88
81897;BME280;71360;43.506;1.500;2023-09-30T04:21:45;99714.13;;;18.61;67.07
81897;BME280;71360;43.506;1.500;2023-09-30T04:24:11;99723.22;;;18.60;67.45
81897;BME280;71360;43.506;1.500;2023-09-30T04:26:36;99719.78;;;18.58;67.32
81897;BME280;71360;43.506;1.500;2023-09-30T04:29:02;99723.22;;;18.60;67.28
81897;BME280;71360;43.506;1.500;2023-09-30T04:31:36;99718.03;;;18.57;67.00
81897;BME280;71360;43.506;1.500;2023-09-30T04:34:01;99719.91;;;18.56;67.49
81897;BME280;71360;43.506;1.500;2023-09-30T04:36:27;99714.59;;;18.55;67.54
81897;BME280;71360;43.506;1.500;2023-09-30T04:38:52;99711.13;;;18.53;67.35
81897;BME280;71360;43.506;1.500;2023-09-30T04:41:18;99711.38;;;18.50;67.32
81897;BME280;71360;43.506;1.500;2023-09-30T04:43:44;99714.22;;;18.48;67.38
81897;BME280;71360;43.506;1.500;2023-09-30T04:46:09;99711.63;;;18.47;67.28
81897;BME280;71360;43.506;1.500;2023-09-30T04:48:37;99711.63;;;18.47;67.82
81897;BME280;71360;43.506;1.500;2023-09-30T04:51:06;99711.63;;;18.47;68.14
81897;BME280;71360;43.506;1.500;2023-09-30T04:53:32;99702.63;;;18.46;67.75
81897;BME280;71360;43.506;1.500;2023-09-30T04:55:59;99706.22;;;18.47;68.02
81897;BME280;71360;43.506;1.500;2023-09-30T04:58:24;99708.03;;;18.46;68.11
81897;BME280;71360;43.506;1.500;2023-09-30T05:00:50;99709.00;;;18.45;68.49
81897;BME280;71360;43.506;1.500;2023-09-30T05:03:16;99715.31;;;18.46;68.32
81897;BME280;71360;43.506;1.500;2023-09-30T05:05:41;99718.97;;;18.45;68.53
81897;BME280;71360;43.506;1.500;2023-09-30T05:08:07;99723.53;;;18.44;68.35
81897;BME280;71360;43.506;1.500;2023-09-30T05:10:33;99722.66;;;18.44;68.53
81897;BME280;71360;43.506;1.500;2023-09-30T05:12:59;99720.06;;;18.42;68.42
81897;BME280;71360;43.506;1.500;2023-09-30T05:15:24;99729.03;;;18.43;68.87
81897;BME280;71360;43.506;1.500;2023-09-30T05:17:50;99729.91;;;18.43;68.63
81897;BME280;71360;43.506;1.500;2023-09-30T05:20:16;99731.75;;;18.43;68.66
81897;BME280;71360;43.506;1.500;2023-09-30T05:22:46;99727.22;;;18.43;69.10
81897;BME280;71360;43.506;1.500;2023-09-30T05:25:12;99732.75;;;18.42;69.06
81897;BME280;71360;43.506;1.500;2023-09-30T05:27:38;99743.56;;;18.42;68.93
81897;BME280;71360;43.506;1.500;2023-09-30T05:30:05;99738.28;;;18.40;69.22
81897;BME280;71360;43.506;1.500;2023-09-30T05:32:32;99735.66;;;18.38;69.46
81897;BME280;71360;43.506;1.500;2023-09-30T05:34:57;99736.53;;;18.39;69.55
81897;BME280;71360;43.506;1.500;2023-09-30T05:37:24;99736.44;;;18.41;69.57
81897;BME280;71360;43.506;1.500;2023-09-30T05:39:50;99744.53;;;18.41;69.50
81897;BME280;71360;43.506;1.500;2023-09-30T05:42:16;99746.41;;;18.40;69.14
81897;BME280;71360;43.506;1.500;2023-09-30T05:44:43;99749.19;;;18.38;69.46
81897;BME280;71360;43.506;1.500;2023-09-30T05:47:09;99749.09;;;18.40;69.58
81897;BME280;71360;43.506;1.500;2023-09-30T05:49:35;99753.75;;;18.38;69.79
81897;BME280;71360;43.506;1.500;2023-09-30T05:52:02;99751.03;;;18.38;69.81
81897;BME280;71360;43.506;1.500;2023-09-30T05:54:28;99756.47;;;18.38;69.55
81897;BME280;71360;43.506;1.500;2023-09-30T05:56:54;99757.31;;;18.38;69.54
81897;BME280;71360;43.506;1.500;2023-09-30T05:59:20;99756.47;;;18.38;69.96
81897;BME280;71360;43.506;1.500;2023-09-30T06:01:46;99753.75;;;18.38;69.33
81897;BME280;71360;43.506;1.500;2023-09-30T06:04:12;99753.75;;;18.38;69.72
81897;BME280;71360;43.506;1.500;2023-09-30T06:06:37;99759.28;;;18.36;69.99
81897;BME280;71360;43.506;1.500;2023-09-30T06:09:04;99760.25;;;18.35;70.03
81897;BME280;71360;43.506;1.500;2023-09-30T06:11:32;99757.66;;;18.34;69.77
81897;BME280;71360;43.506;1.500;2023-09-30T06:13:58;99758.50;;;18.34;70.13
81897;BME280;71360;43.506;1.500;2023-09-30T06:16:27;99759.53;;;18.33;70.21
81897;BME280;71360;43.506;1.500;2023-09-30T06:18:53;99772.03;;;18.34;70.09
81897;BME280;71360;43.506;1.500;2023-09-30T06:21:20;99771.84;;;18.37;70.43
81897;BME280;71360;43.506;1.500;2023-09-30T06:23:47;99770.84;;;18.38;70.25
81897;BME280;71360;43.506;1.500;2023-09-30T06:26:14;99769.88;;;18.39;69.91
81897;BME280;71360;43.506;1.500;2023-09-30T06:28:42;99775.28;;;18.39;69.97
81897;BME280;71360;43.506;1.500;2023-09-30T06:31:08;99771.50;;;18.42;69.75
81897;BME280;71360;43.506;1.500;2023-09-30T06:33:37;99775.94;;;18.43;70.13
81897;BME280;71360;43.506;1.500;2023-09-30T06:36:13;99773.34;;;18.42;69.96
81897;BME280;71360;43.506;1.500;2023-09-30T06:38:43;99773.09;;;18.45;69.82
81897;BME280;71360;43.506;1.500;2023-09-30T06:41:09;99782.84;;;18.47;70.02
81897;BME280;71360;43.506;1.500;2023-09-30T06:43:35;99781.75;;;18.50;69.98
81897;BME280;71360;43.506;1.500;2023-09-30T06:46:07;99795.88;;;18.53;69.94
81897;BME280;71360;43.506;1.500;2023-09-30T06:48:36;99785.81;;;18.55;70.22
81897;BME280;71360;43.506;1.500;2023-09-30T06:51:02;99796.28;;;18.60;70.22
81897;BME280;71360;43.506;1.500;2023-09-30T06:53:28;99790.56;;;18.65;70.21
81897;BME280;71360;43.506;1.500;2023-09-30T06:55:54;99783.03;;;18.68;70.13
81897;BME280;71360;43.506;1.500;2023-09-30T06:58:19;99787.25;;;18.72;70.16
81897;BME280;71360;43.506;1.500;2023-09-30T07:00:52;99789.50;;;18.79;70.06
81897;BME280;71360;43.506;1.500;2023-09-30T07:03:19;99799.13;;;18.83;70.22
81897;BME280;71360;43.506;1.500;2023-09-30T07:05:45;99799.53;;;18.89;70.23
81897;BME280;71360;43.506;1.500;2023-09-30T07:08:10;99808.19;;;18.95;70.35
81897;BME280;71360;43.506;1.500;2023-09-30T07:10:36;99813.25;;;18.99;70.30
81897;BME280;71360;43.506;1.500;2023-09-30T07:13:03;99809.06;;;19.06;70.01
81897;BME280;71360;43.506;1.500;2023-09-30T07:15:29;99809.47;;;19.13;70.09
81897;BME280;71360;43.506;1.500;2023-09-30T07:17:54;99803.72;;;19.18;69.76
81897;BME280;71360;43.506;1.500;2023-09-30T07:20:20;99813.94;;;19.26;70.03
81897;BME280;71360;43.506;1.500;2023-09-30T07:22:48;99804.34;;;19.33;70.13
81897;BME280;71360;43.506;1.500;2023-09-30T07:25:13;99802.03;;;19.39;69.56
81897;BME280;71360;43.506;1.500;2023-09-30T07:27:45;99805.00;;;19.48;69.89
81897;BME280;71360;43.506;1.500;2023-09-30T07:30:12;99816.09;;;19.56;69.47
81897;BME280;71360;43.506;1.500;2023-09-30T07:32:43;99808.94;;;19.66;69.84
81897;BME280;71360;43.506;1.500;2023-09-30T07:35:10;99810.94;;;19.76;69.65
81897;BME280;71360;43.506;1.500;2023-09-30T07:37:36;99812.09;;;19.84;69.22
81897;BME280;71360;43.506;1.500;2023-09-30T07:40:01;99815.91;;;19.93;69.42
81897;BME280;71360;43.506;1.500;2023-09-30T07:42:27;99821.44;;;20.03;69.63
81897;BME280;71360;43.506;1.500;2023-09-30T07:44:53;99818.97;;;20.11;69.34
81897;BME280;71360;43.506;1.500;2023-09-30T07:47:19;99827.13;;;20.22;68.95
81897;BME280;71360;43.506;1.500;2023-09-30T07:49:44;99827.22;;;20.32;68.83
81897;BME280;71360;43.506;1.500;2023-09-30T07:52:10;99819.03;;;20.44;68.48
81897;BME280;71360;43.506;1.500;2023-09-30T07:54:36;99825.19;;;20.57;68.69
81897;BME280;71360;43.506;1.500;2023-09-30T07:57:01;99829.13;;;20.76;68.15
81897;BME280;71360;43.506;1.500;2023-09-30T07:59:27;99828.16;;;20.98;68.80
81897;BME280;71360;43.506;1.500;2023-09-30T08:01:53;99830.50;;;21.23;68.49
81897;BME280;71360;43.506;1.500;2023-09-30T08:04:19;99840.53;;;21.44;67.44
81897;BME280;71360;43.506;1.500;2023-09-30T08:06:44;99838.69;;;21.66;67.07
81897;BME280;71360;43.506;1.500;2023-09-30T08:09:12;99836.19;;;21.84;66.75
81897;BME280;71360;43.506;1.500;2023-09-30T08:11:38;99835.28;;;22.04;66.75
81897;BME280;71360;43.506;1.500;2023-09-30T08:14:04;99836.38;;;22.23;65.96
81897;BME280;71360;43.506;1.500;2023-09-30T08:16:33;99843.75;;;22.42;65.84
81897;BME280;71360;43.506;1.500;2023-09-30T08:18:58;99845.97;;;22.58;64.48
81897;BME280;71360;43.506;1.500;2023-09-30T08:21:24;99837.09;;;22.66;64.83
81897;BME280;71360;43.506;1.500;2023-09-30T08:23:49;99833.63;;;22.73;63.58
81897;BME280;71360;43.506;1.500;2023-09-30T08:26:15;99839.25;;;22.82;63.91
81897;BME280;71360;43.506;1.500;2023-09-30T08:28:40;99841.41;;;22.88;63.20
81897;BME280;71360;43.506;1.500;2023-09-30T08:31:06;99843.28;;;22.97;62.92
81897;BME280;71360;43.506;1.500;2023-09-30T08:33:32;99849.03;;;23.04;62.98
81897;BME280;71360;43.506;1.500;2023-09-30T08:36:04;99840.25;;;23.10;62.59
81897;BME280;71360;43.506;1.500;2023-09-30T08:38:37;99839.59;;;23.18;62.22
81897;BME280;71360;43.506;1.500;2023-09-30T08:41:03;99846.16;;;23.25;61.83
81897;BME280;71360;43.506;1.500;2023-09-30T08:43:29;99850.91;;;23.33;62.32
81897;BME280;71360;43.506;1.500;2023-09-30T08:45:58;99848.31;;;23.41;61.50
81897;BME280;71360;43.506;1.500;2023-09-30T08:48:26;99848.28;;;23.51;61.28
81897;BME280;71360;43.506;1.500;2023-09-30T08:50:55;99845.69;;;23.59;61.03
81897;BME280;71360;43.506;1.500;2023-09-30T08:53:22;99848.69;;;23.66;60.28
81897;BME280;71360;43.506;1.500;2023-09-30T08:55:52;99842.50;;;23.73;60.53
81897;BME280;71360;43.506;1.500;2023-09-30T08:58:19;99840.75;;;23.82;60.06
81897;BME280;71360;43.506;1.500;2023-09-30T09:00:49;99836.16;;;23.92;60.01
81897;BME280;71360;43.506;1.500;2023-09-30T09:03:15;99841.00;;;23.99;59.58
81897;BME280;71360;43.506;1.500;2023-09-30T09:05:41;99838.00;;;24.02;59.95
81897;BME280;71360;43.506;1.500;2023-09-30T09:08:07;99839.94;;;24.09;59.05
81897;BME280;71360;43.506;1.500;2023-09-30T09:10:34;99838.22;;;24.18;59.03
81897;BME280;71360;43.506;1.500;2023-09-30T09:12:59;99831.84;;;24.27;58.16
81897;BME280;71360;43.506;1.500;2023-09-30T09:15:26;99831.06;;;24.35;57.78
81897;BME280;71360;43.506;1.500;2023-09-30T09:17:54;99829.59;;;24.41;57.57
81897;BME280;71360;43.506;1.500;2023-09-30T09:20:24;99839.06;;;24.47;57.36
81897;BME280;71360;43.506;1.500;2023-09-30T09:22:55;99844.75;;;24.53;57.54
81897;BME280;71360;43.506;1.500;2023-09-30T09:25:24;99847.31;;;24.65;57.04
81897;BME280;71360;43.506;1.500;2023-09-30T09:27:53;99842.09;;;24.71;57.23
81897;BME280;71360;43.506;1.500;2023-09-30T09:30:24;99843.91;;;24.81;56.52
81897;BME280;71360;43.506;1.500;2023-09-30T09:33:03;99839.97;;;24.83;56.14
81897;BME280;71360;43.506;1.500;2023-09-30T09:35:31;99844.69;;;24.91;55.95
81897;BME280;71360;43.506;1.500;2023-09-30T09:37:58;99840.31;;;24.98;55.55
81897;BME280;71360;43.506;1.500;2023-09-30T09:40:29;99842.25;;;25.06;55.85
81897;BME280;71360;43.506;1.500;2023-09-30T09:42:55;99836.03;;;25.14;54.75
81897;BME280;71360;43.506;1.500;2023-09-30T09:45:23;99837.09;;;25.21;55.37
81897;BME280;71360;43.506;1.500;2023-09-30T09:47:49;99828.56;;;25.24;54.67
81897;BME280;71360;43.506;1.500;2023-09-30T09:50:18;99828.97;;;25.29;54.04
81897;BME280;71360;43.506;1.500;2023-09-30T09:52:44;99828.38;;;25.35;54.38
81897;BME280;71360;43.506;1.500;2023-09-30T09:55:12;99819.66;;;25.40;54.07
81897;BME280;71360;43.506;1.500;2023-09-30T09:57:40;99818.16;;;25.45;53.53
81897;BME280;71360;43.506;1.500;2023-09-30T10:00:07;99813.78;;;25.53;53.47
81897;BME280;71360;43.506;1.500;2023-09-30T10:02:40;99823.75;;;25.62;53.78
81897;BME280;71360;43.506;1.500;2023-09-30T10:05:06;99813.91;;;25.69;52.74
81897;BME280;71360;43.506;1.500;2023-09-30T10:07:50;99811.84;;;25.71;52.58
81897;BME280;71360;43.506;1.500;2023-09-30T10:10:18;99814.97;;;25.76;52.14
81897;BME280;71360;43.506;1.500;2023-09-30T10:12:44;99814.31;;;25.83;52.46
81897;BME280;71360;43.506;1.500;2023-09-30T10:15:45;99807.00;;;25.91;51.94
81897;BME280;71360;43.506;1.500;2023-09-30T10:18:11;99798.16;;;25.98;51.71
81897;BME280;71360;43.506;1.500;2023-09-30T10:20:41;99799.22;;;26.05;52.22
81897;BME280;71360;43.506;1.500;2023-09-30T10:23:29;99799.59;;;26.10;51.92
81897;BME280;71360;43.506;1.500;2023-09-30T10:26:20;99788.84;;;26.17;52.38
81897;BME280;71360;43.506;1.500;2023-09-30T10:28:47;99796.03;;;26.26;51.90
81897;BME280;71360;43.506;1.500;2023-09-30T10:31:16;99796.06;;;26.34;51.64
81897;BME280;71360;43.506;1.500;2023-09-30T10:36:32;99788.56;;;26.44;51.72
81897;BME280;71360;43.506;1.500;2023-09-30T10:38:59;99786.19;;;26.50;50.93
81897;BME280;71360;43.506;1.500;2023-09-30T10:46:55;99789.97;;;26.65;50.70
81897;BME280;71360;43.506;1.500;2023-09-30T10:51:56;99787.81;;;26.77;49.69
81897;BME280;71360;43.506;1.500;2023-09-30T10:54:27;99781.50;;;26.85;49.98
81897;BME280;71360;43.506;1.500;2023-09-30T10:56:54;99779.78;;;26.92;50.01
81897;BME280;71360;43.506;1.500;2023-09-30T10:59:23;99777.22;;;26.99;49.67
81897;BME280;71360;43.506;1.500;2023-09-30T11:01:52;99771.91;;;27.05;49.63
81897;BME280;71360;43.506;1.500;2023-09-30T11:04:21;99769.16;;;27.13;48.85
81897;BME280;71360;43.506;1.500;2023-09-30T11:06:46;99772.06;;;27.20;48.61
81897;BME280;71360;43.506;1.500;2023-09-30T11:09:16;99765.69;;;27.28;48.94
81897;BME280;71360;43.506;1.500;2023-09-30T11:11:47;99764.00;;;27.35;48.66
81897;BME280;71360;43.506;1.500;2023-09-30T11:14:24;99766.06;;;27.41;49.03
81897;BME280;71360;43.506;1.500;2023-09-30T11:16:51;99766.72;;;27.52;48.59
81897;BME280;71360;43.506;1.500;2023-09-30T11:19:18;99758.13;;;27.63;48.42
81897;BME280;71360;43.506;1.500;2023-09-30T11:21:47;99759.63;;;27.74;47.46
81897;BME280;71360;43.506;1.500;2023-09-30T11:24:14;99768.03;;;27.80;47.57
81897;BME280;71360;43.506;1.500;2023-09-30T11:26:40;99759.09;;;27.87;47.38
81897;BME280;71360;43.506;1.500;2023-09-30T11:29:10;99766.78;;;27.91;46.95
81897;BME280;71360;43.506;1.500;2023-09-30T11:31:40;99759.06;;;27.95;47.28
81897;BME280;71360;43.506;1.500;2023-09-30T11:34:07;99747.69;;;27.98;46.42
81897;BME280;71360;43.506;1.500;2023-09-30T11:36:37;99752.00;;;28.01;46.53
81897;BME280;71360;43.506;1.500;2023-09-30T11:39:03;99737.72;;;28.05;47.00
81897;BME280;71360;43.506;1.500;2023-09-30T11:41:37;99742.34;;;28.13;46.19
81897;BME280;71360;43.506;1.500;2023-09-30T11:44:08;99740.38;;;28.22;46.47
81897;BME280;71360;43.506;1.500;2023-09-30T11:46:52;99736.56;;;28.31;46.54
81897;BME280;71360;43.506;1.500;2023-09-30T11:52:03;99730.06;;;28.55;46.17
81897;BME280;71360;43.506;1.500;2023-09-30T11:54:37;99728.81;;;28.66;45.38
81897;BME280;71360;43.506;1.500;2023-09-30T11:57:07;99732.19;;;28.76;45.13
81897;BME280;71360;43.506;1.500;2023-09-30T11:59:35;99718.38;;;28.85;45.54
81897;BME280;71360;43.506;1.500;2023-09-30T12:02:01;99726.03;;;28.89;44.53
81897;BME280;71360;43.506;1.500;2023-09-30T12:04:27;99714.66;;;28.92;44.20
81897;BME280;71360;43.506;1.500;2023-09-30T12:06:53;99718.09;;;28.94;43.96
81897;BME280;71360;43.506;1.500;2023-09-30T12:09:18;99712.78;;;28.93;44.08
81897;BME280;71360;43.506;1.500;2023-09-30T12:11:52;99707.94;;;28.95;43.61
81897;BME280;71360;43.506;1.500;2023-09-30T12:14:19;99712.22;;;28.97;43.68
81897;BME280;71360;43.506;1.500;2023-09-30T12:16:46;99702.53;;;29.02;43.57
81897;BME280;71360;43.506;1.500;2023-09-30T12:19:16;99707.66;;;29.05;43.96
81897;BME280;71360;43.506;1.500;2023-09-30T12:21:42;99702.47;;;29.10;43.88
81897;BME280;71360;43.506;1.500;2023-09-30T12:24:08;99690.53;;;29.18;44.02
81897;BME280;71360;43.506;1.500;2023-09-30T12:26:35;99697.31;;;29.30;43.70
81897;BME280;71360;43.506;1.500;2023-09-30T12:29:01;99690.69;;;29.39;43.29
81897;BME280;71360;43.506;1.500;2023-09-30T12:31:27;99693.16;;;29.49;43.27
81897;BME280;71360;43.506;1.500;2023-09-30T12:33:52;99681.19;;;29.57;43.13
81897;BME280;71360;43.506;1.500;2023-09-30T12:36:19;99684.50;;;29.67;43.06
81897;BME280;71360;43.506;1.500;2023-09-30T12:38:45;99681.28;;;29.78;42.73
81897;BME280;71360;43.506;1.500;2023-09-30T12:41:10;99683.25;;;29.85;42.19
81897;BME280;71360;43.506;1.500;2023-09-30T12:43:37;99680.59;;;29.91;42.15
81897;BME280;71360;43.506;1.500;2023-09-30T12:46:03;99682.59;;;29.97;41.42
81897;BME280;71360;43.506;1.500;2023-09-30T12:48:30;99678.22;;;30.03;41.67
81897;BME280;71360;43.506;1.500;2023-09-30T12:50:55;99681.25;;;30.08;41.33
81897;BME280;71360;43.506;1.500;2023-09-30T12:53:21;99676.84;;;30.14;41.31
81897;BME280;71360;43.506;1.500;2023-09-30T12:55:46;99680.94;;;30.18;41.17
81897;BME280;71360;43.506;1.500;2023-09-30T12:58:12;99671.84;;;30.24;41.03
81897;BME280;71360;43.506;1.500;2023-09-30T13:00:37;99671.72;;;30.33;40.45
81897;BME280;71360;43.506;1.500;2023-09-30T13:03:03;99669.66;;;30.35;40.10
81897;BME280;71360;43.506;1.500;2023-09-30T13:05:29;99665.19;;;30.34;39.96
81897;BME280;71360;43.506;1.500;2023-09-30T13:07:55;99661.94;;;30.30;40.43
81897;BME280;71360;43.506;1.500;2023-09-30T13:10:21;99666.69;;;30.36;40.43
81897;BME280;71360;43.506;1.500;2023-09-30T13:12:48;99660.88;;;30.46;40.23